createdAt,value
2019-05-13T00:02:04.864Z,10.29
2019-05-13T00:04:34.869Z,9.42
2019-05-13T00:07:05.025Z,9.59
2019-05-13T00:09:35.035Z,9.10
2019-05-13T00:12:05.098Z,9.05
2019-05-13T00:14:35.121Z,9.31
2019-05-13T00:17:05.253Z,9.69
2019-05-13T00:19:35.297Z,9.96
2019-05-13T00:22:05.280Z,9.96
2019-05-13T00:24:35.403Z,9.71
2019-05-13T00:27:05.381Z,9.79
2019-05-13T00:29:35.399Z,9.53
2019-05-13T00:32:05.376Z,9.42
2019-05-13T00:34:35.346Z,9.79
2019-05-13T00:37:11.235Z,9.75
2019-05-13T00:39:37.149Z,10.22
2019-05-13T00:42:07.279Z,10.09
2019-05-13T00:44:37.286Z,9.92
2019-05-13T00:47:07.299Z,9.81
2019-05-13T00:49:37.293Z,9.47
2019-05-13T00:52:07.239Z,9.13
2019-05-13T00:54:37.226Z,10.18
2019-05-13T00:57:07.195Z,10.11
2019-05-13T00:59:37.185Z,9.97
2019-05-13T01:02:07.122Z,9.74
2019-05-13T01:04:37.113Z,10.20
2019-05-13T01:07:07.103Z,10.36
2019-05-13T01:09:39.442Z,9.38
2019-05-13T01:12:09.390Z,9.85
2019-05-13T01:14:39.364Z,10.16
2019-05-13T01:17:09.335Z,9.48
2019-05-13T01:19:39.319Z,9.44
2019-05-13T01:22:09.298Z,9.86
2019-05-13T01:24:39.348Z,9.33
2019-05-13T01:27:09.275Z,10.00
2019-05-13T01:29:39.243Z,9.10
2019-05-13T01:32:09.192Z,9.96
2019-05-13T01:34:39.166Z,9.56
2019-05-13T01:37:09.117Z,8.99
2019-05-13T01:39:39.545Z,9.32
2019-05-13T01:42:09.493Z,9.09
2019-05-13T01:44:39.466Z,8.95
2019-05-13T01:47:09.538Z,8.60
2019-05-13T01:49:39.530Z,9.31
2019-05-13T01:52:09.486Z,9.73
2019-05-13T01:54:39.489Z,9.69
2019-05-13T01:57:09.486Z,9.29
2019-05-13T01:59:39.457Z,8.78
2019-05-13T02:02:09.421Z,9.59
2019-05-13T02:04:39.380Z,8.79
2019-05-13T02:07:09.330Z,9.43
2019-05-13T02:09:39.708Z,9.10
2019-05-13T02:12:09.653Z,9.62
2019-05-13T02:14:39.647Z,8.71
2019-05-13T02:17:09.599Z,9.73
2019-05-13T02:19:39.576Z,8.97
2019-05-13T02:22:09.540Z,9.69
2019-05-13T02:24:39.535Z,9.25
2019-05-13T02:27:09.479Z,8.98
2019-05-13T02:29:39.454Z,8.90
2019-05-13T02:32:13.284Z,8.76
2019-05-13T02:34:43.757Z,9.02
2019-05-13T02:37:13.056Z,9.23
2019-05-13T02:39:43.071Z,8.99
2019-05-13T02:42:13.483Z,9.10
2019-05-13T02:44:43.872Z,8.86
2019-05-13T02:47:13.897Z,8.84
2019-05-13T02:49:43.851Z,8.73
2019-05-13T02:52:13.804Z,9.55
2019-05-13T02:54:43.750Z,8.37
2019-05-13T02:57:13.742Z,8.73
2019-05-13T02:59:43.807Z,9.01
2019-05-13T03:02:13.815Z,8.48
2019-05-13T03:04:43.920Z,8.32
2019-05-13T03:07:13.901Z,9.23
2019-05-13T03:09:43.883Z,8.59
2019-05-13T03:12:13.871Z,8.48
2019-05-13T03:14:47.991Z,8.93
2019-05-13T03:17:24.025Z,8.44
2019-05-13T03:19:53.948Z,8.28
2019-05-13T03:22:24.011Z,8.72
2019-05-13T03:24:53.956Z,8.90
2019-05-13T03:27:25.117Z,8.28
2019-05-13T03:29:55.504Z,8.11
2019-05-13T03:32:28.833Z,8.20
2019-05-13T03:34:57.357Z,8.86
2019-05-13T03:37:27.838Z,8.53
2019-05-13T03:39:58.190Z,8.52
2019-05-13T03:42:28.852Z,8.14
2019-05-13T03:45:03.072Z,8.98
2019-05-13T03:47:33.616Z,8.47
2019-05-13T03:50:04.077Z,8.35
2019-05-13T03:52:34.212Z,8.80
2019-05-13T03:55:04.325Z,7.95
2019-05-13T03:57:34.318Z,8.91
2019-05-13T04:00:04.580Z,8.49
2019-05-13T04:02:34.850Z,8.57
2019-05-13T04:05:05.530Z,8.49
2019-05-13T04:07:35.498Z,8.81
2019-05-13T04:10:05.852Z,9.18
2019-05-13T04:12:35.936Z,9.46
2019-05-13T04:15:05.912Z,8.59
2019-05-13T04:17:35.902Z,9.34
2019-05-13T04:20:06.173Z,9.58
2019-05-13T04:22:36.261Z,9.00
2019-05-13T04:25:06.296Z,8.99
2019-05-13T04:27:36.287Z,8.55
2019-05-13T04:30:07.662Z,8.63
2019-05-13T04:32:37.648Z,8.79
2019-05-13T04:35:08.029Z,9.40
2019-05-13T04:37:38.035Z,8.77
2019-05-13T04:40:08.078Z,8.25
2019-05-13T04:42:38.064Z,8.99
2019-05-13T04:45:08.116Z,8.77
2019-05-13T04:47:38.080Z,8.23
2019-05-13T04:50:08.731Z,8.18
2019-05-13T04:52:42.071Z,8.01
2019-05-13T04:55:13.189Z,8.52
2019-05-13T04:57:42.843Z,8.91
2019-05-13T05:00:13.129Z,8.74
2019-05-13T05:03:13.797Z,8.61
2019-05-13T05:06:24.295Z,8.60
2019-05-13T05:10:02.464Z,8.52
2019-05-13T05:12:58.230Z,8.78
2019-05-13T05:15:43.175Z,8.38
2019-05-13T05:18:52.868Z,8.64
2019-05-13T05:21:27.579Z,8.05
2019-05-13T05:24:52.126Z,8.48
2019-05-13T05:27:59.145Z,8.57
2019-05-13T05:31:05.287Z,8.45
2019-05-13T05:34:12.489Z,8.39
2019-05-13T05:37:26.827Z,8.62
2019-05-13T05:39:56.802Z,8.64
2019-05-13T05:42:28.063Z,8.59
2019-05-13T05:45:02.554Z,8.38
2019-05-13T05:47:32.270Z,8.46
2019-05-13T05:50:03.163Z,8.44
2019-05-13T05:52:34.067Z,8.78
2019-05-13T05:55:04.424Z,8.71
2019-05-13T05:57:34.711Z,8.84
2019-05-13T06:00:04.943Z,8.75
2019-05-13T06:02:35.887Z,8.94
2019-05-13T06:05:06.316Z,8.69
2019-05-13T06:07:37.113Z,8.98
2019-05-13T06:10:07.190Z,9.02
2019-05-13T06:12:37.679Z,8.84
2019-05-13T06:15:07.884Z,9.06
2019-05-13T06:17:37.837Z,9.28
2019-05-13T06:20:08.606Z,9.09
2019-05-13T06:22:38.540Z,9.17
2019-05-13T06:25:08.678Z,9.16
2019-05-13T06:27:38.597Z,9.13
2019-05-13T06:30:08.721Z,9.28
2019-05-13T06:32:38.671Z,9.17
2019-05-13T06:35:08.650Z,9.39
2019-05-13T06:37:38.590Z,9.41
2019-05-13T06:40:08.691Z,9.71
2019-05-13T06:42:38.674Z,9.97
2019-05-13T06:45:08.782Z,9.92
2019-05-13T06:47:41.174Z,9.66
2019-05-13T06:50:11.635Z,9.82
2019-05-13T06:52:42.584Z,9.88
2019-05-13T06:55:12.728Z,10.11
2019-05-13T06:57:42.680Z,10.14
2019-05-13T07:00:12.798Z,10.19
2019-05-13T07:02:42.901Z,10.73
2019-05-13T07:05:13.342Z,10.45
2019-05-13T07:07:43.336Z,10.45
2019-05-13T07:10:14.997Z,10.38
2019-05-13T07:12:44.944Z,10.59
2019-05-13T07:15:15.054Z,11.27
2019-05-13T07:17:45.021Z,11.08
2019-05-13T07:20:15.323Z,11.09
2019-05-13T07:22:45.315Z,10.79
2019-05-13T07:25:15.334Z,11.73
2019-05-13T07:27:45.338Z,11.46
2019-05-13T07:30:17.158Z,11.67
2019-05-13T07:32:47.128Z,12.01
2019-05-13T07:35:17.853Z,11.92
2019-05-13T07:37:47.905Z,12.11
2019-05-13T07:40:17.951Z,12.66
2019-05-13T07:42:47.945Z,12.78
2019-05-13T07:45:17.984Z,13.04
2019-05-13T07:47:47.967Z,13.06
2019-05-13T07:50:17.973Z,12.93
2019-05-13T07:52:48.012Z,13.17
2019-05-13T07:55:17.982Z,13.16
2019-05-13T07:57:48.006Z,13.38
2019-05-13T08:00:18.136Z,14.40
2019-05-13T08:02:48.120Z,14.40
2019-05-13T08:05:18.472Z,13.74
2019-05-13T08:07:48.588Z,14.38
2019-05-13T08:10:18.752Z,14.48
2019-05-13T08:12:48.734Z,14.26
2019-05-13T08:15:18.912Z,14.00
2019-05-13T08:17:49.112Z,14.38
2019-05-13T08:20:21.908Z,14.05
2019-05-13T08:22:52.026Z,14.33
2019-05-13T08:25:22.355Z,14.58
2019-05-13T08:27:52.801Z,14.48
2019-05-13T08:30:22.893Z,15.00
2019-05-13T08:32:52.904Z,14.53
2019-05-13T08:35:22.828Z,14.90
2019-05-13T08:37:52.833Z,14.92
2019-05-13T08:40:23.522Z,15.36
2019-05-13T08:42:53.599Z,15.52
2019-05-13T08:45:23.580Z,15.55
2019-05-13T08:47:53.576Z,15.71
2019-05-13T08:50:23.553Z,15.94
2019-05-13T08:52:53.535Z,15.69
2019-05-13T08:55:23.534Z,15.86
2019-05-13T08:57:55.229Z,15.66
2019-05-13T09:00:52.814Z,16.23
2019-05-13T09:03:22.841Z,16.20
2019-05-13T09:05:53.491Z,16.00
2019-05-13T09:08:24.379Z,16.21
2019-05-13T09:10:56.791Z,16.43
2019-05-13T09:13:26.166Z,16.29
2019-05-13T09:15:56.156Z,16.15
2019-05-13T09:18:26.141Z,16.43
2019-05-13T09:20:56.096Z,16.69
2019-05-13T09:23:26.179Z,17.07
2019-05-13T09:25:56.232Z,17.02
2019-05-13T09:28:26.197Z,16.87
2019-05-13T09:30:56.195Z,16.83
2019-05-13T09:33:26.215Z,17.37
2019-05-13T09:35:56.184Z,17.07
2019-05-13T09:38:26.229Z,17.16
2019-05-13T09:40:56.197Z,16.59
2019-05-13T09:43:26.207Z,17.51
2019-05-13T09:45:56.162Z,17.37
2019-05-13T09:48:26.157Z,17.38
2019-05-13T09:50:56.157Z,17.25
2019-05-13T09:53:26.736Z,17.58
2019-05-13T09:55:56.709Z,17.79
2019-05-13T09:58:29.771Z,16.87
2019-05-13T10:00:58.596Z,17.82
2019-05-13T10:03:29.758Z,17.38
2019-05-13T10:06:02.459Z,17.43
2019-05-13T10:08:32.775Z,17.61
2019-05-13T10:11:02.932Z,18.29
2019-05-13T10:13:32.938Z,17.45
2019-05-13T10:16:02.937Z,18.33
2019-05-13T10:18:32.949Z,17.96
2019-05-13T10:21:04.024Z,17.98
2019-05-13T10:23:34.291Z,18.27
2019-05-13T10:26:07.101Z,17.94
2019-05-13T10:28:37.068Z,17.73
2019-05-13T10:31:07.521Z,18.11
2019-05-13T10:33:42.052Z,17.84
2019-05-13T10:36:13.757Z,17.44
2019-05-13T10:38:45.429Z,17.32
2019-05-13T10:41:15.442Z,18.13
2019-05-13T10:43:45.763Z,18.76
2019-05-13T10:46:15.783Z,18.09
2019-05-13T10:48:46.514Z,18.27
2019-05-13T10:51:16.546Z,18.22
2019-05-13T10:53:46.516Z,18.80
2019-05-13T10:56:16.483Z,18.47
2019-05-13T10:58:46.626Z,18.57
2019-05-13T11:01:16.635Z,17.69
2019-05-13T11:03:46.588Z,17.70
2019-05-13T11:06:16.582Z,18.14
2019-05-13T11:08:46.562Z,18.12
2019-05-13T11:11:16.550Z,17.74
2019-05-13T11:13:54.395Z,17.92
2019-05-13T11:16:18.312Z,18.36
2019-05-13T11:18:48.421Z,18.34
2019-05-13T11:21:18.425Z,18.32
2019-05-13T11:23:48.410Z,17.94
2019-05-13T11:26:18.395Z,17.97
2019-05-13T11:28:48.400Z,18.31
2019-05-13T11:31:18.388Z,17.71
2019-05-13T11:33:48.484Z,18.35
2019-05-13T11:36:19.474Z,18.94
2019-05-13T11:38:49.793Z,18.01
2019-05-13T11:41:22.800Z,17.95
2019-05-13T11:44:11.084Z,18.44
2019-05-13T11:46:24.877Z,18.56
2019-05-13T11:48:54.844Z,18.77
2019-05-13T11:51:24.852Z,18.35
2019-05-13T11:53:54.820Z,18.59
2019-05-13T11:56:24.980Z,19.02
2019-05-13T11:58:54.973Z,18.35
2019-05-13T12:01:25.004Z,18.69
2019-05-13T12:03:55.036Z,18.34
2019-05-13T12:06:25.000Z,18.07
2019-05-13T12:08:55.555Z,18.35
2019-05-13T12:11:25.681Z,18.97
2019-05-13T12:13:55.640Z,18.05
2019-05-13T12:16:25.632Z,18.15
2019-05-13T12:18:55.733Z,17.73
2019-05-13T12:21:26.224Z,18.08
2019-05-13T12:23:56.552Z,18.44
2019-05-13T12:26:26.828Z,18.53
2019-05-13T12:28:56.843Z,18.00
2019-05-13T12:31:26.826Z,17.40
2019-05-13T12:33:57.044Z,18.04
2019-05-13T12:36:27.027Z,17.50
2019-05-13T12:38:57.008Z,18.08
2019-05-13T12:41:27.007Z,17.44
2019-05-13T12:43:57.042Z,17.56
2019-05-13T12:46:27.125Z,17.67
2019-05-13T12:48:57.159Z,18.56
2019-05-13T12:51:28.022Z,17.88
2019-05-13T12:53:57.975Z,18.42
2019-05-13T12:56:28.004Z,17.89
2019-05-13T12:58:58.002Z,18.06
2019-05-13T13:01:27.993Z,17.83
2019-05-13T13:03:57.975Z,18.15
2019-05-13T13:06:36.086Z,18.36
2019-05-13T13:08:59.924Z,18.24
2019-05-13T13:11:32.412Z,18.33
2019-05-13T13:14:05.739Z,17.68
2019-05-13T13:16:36.117Z,18.33
2019-05-13T13:19:05.421Z,17.54
2019-05-13T13:21:37.702Z,17.62
2019-05-13T13:24:07.094Z,17.55
2019-05-13T13:26:37.086Z,17.26
2019-05-13T13:29:07.164Z,17.67
2019-05-13T13:31:37.144Z,17.74
2019-05-13T13:34:12.629Z,17.68
2019-05-13T13:36:39.027Z,17.85
2019-05-13T13:39:09.390Z,18.22
2019-05-13T13:41:39.367Z,17.77
2019-05-13T13:44:11.615Z,17.76
2019-05-13T13:46:44.617Z,17.60
2019-05-13T13:49:13.243Z,17.51
2019-05-13T13:51:44.502Z,18.00
2019-05-13T13:54:15.133Z,17.29
2019-05-13T13:56:45.158Z,17.73
2019-05-13T13:59:15.593Z,17.60
2019-05-13T14:01:45.761Z,17.69
2019-05-13T14:04:16.729Z,17.47
2019-05-13T14:09:18.640Z,17.11
2019-05-13T14:11:51.391Z,16.75
2019-05-13T14:14:21.522Z,16.97
2019-05-13T14:16:52.096Z,16.88
2019-05-13T14:19:22.206Z,16.65
2019-05-13T14:21:52.686Z,17.20
2019-05-13T14:24:22.920Z,16.97
2019-05-13T14:26:52.920Z,17.03
2019-05-13T14:29:37.544Z,17.19
2019-05-13T14:31:55.313Z,17.33
2019-05-13T14:34:25.333Z,17.18
2019-05-13T14:36:55.673Z,16.81
2019-05-13T14:39:25.712Z,16.90
2019-05-13T14:41:55.685Z,16.70
2019-05-13T14:44:25.689Z,16.96
2019-05-13T14:46:55.718Z,16.73
2019-05-13T14:49:25.781Z,16.99
2019-05-13T14:51:56.399Z,16.64
2019-05-13T14:54:26.502Z,17.01
2019-05-13T14:56:56.846Z,17.15
2019-05-13T14:59:26.845Z,17.23
2019-05-13T15:01:56.850Z,16.81
2019-05-13T15:04:26.834Z,17.09
2019-05-13T15:06:56.781Z,16.95
2019-05-13T15:09:26.789Z,17.08
2019-05-13T15:11:56.860Z,16.62
2019-05-13T15:14:26.894Z,16.71
2019-05-13T15:17:02.741Z,16.88
2019-05-13T15:19:28.573Z,16.99
2019-05-13T15:21:58.652Z,16.68
2019-05-13T15:24:28.722Z,16.81
2019-05-13T15:26:58.748Z,17.12
2019-05-13T15:29:31.139Z,16.68
2019-05-13T15:32:02.065Z,16.86
2019-05-13T15:34:32.340Z,16.76
2019-05-13T15:37:02.516Z,16.82
2019-05-13T15:39:32.495Z,16.78
2019-05-13T15:42:02.475Z,16.43
2019-05-13T15:44:32.862Z,16.34
2019-05-13T15:47:18.218Z,16.57
2019-05-13T15:49:34.603Z,16.49
2019-05-13T15:52:04.595Z,16.12
2019-05-13T15:54:34.571Z,16.33
2019-05-13T15:57:04.572Z,16.69
2019-05-13T15:59:34.552Z,16.15
2019-05-13T16:02:04.587Z,16.26
2019-05-13T16:04:49.029Z,16.21
2019-05-13T16:07:06.469Z,16.40
2019-05-13T16:09:36.453Z,16.31
2019-05-13T16:12:06.592Z,16.41
2019-05-13T16:14:36.722Z,16.41
2019-05-13T16:17:06.718Z,16.44
2019-05-13T16:19:36.754Z,16.29
2019-05-13T16:22:06.755Z,15.93
2019-05-13T16:24:36.748Z,15.81
2019-05-13T16:27:06.775Z,15.89
2019-05-13T16:29:36.764Z,16.13
2019-05-13T16:32:06.946Z,15.73
2019-05-13T16:34:36.941Z,16.14
2019-05-13T16:37:06.938Z,16.05
2019-05-13T16:39:36.940Z,15.80
2019-05-13T16:42:06.978Z,15.92
2019-05-13T16:44:36.994Z,15.67
2019-05-13T16:47:07.013Z,15.59
2019-05-13T16:49:36.984Z,15.61
2019-05-13T16:52:06.982Z,15.59
2019-05-13T16:54:36.968Z,15.24
2019-05-13T16:57:06.997Z,15.33
2019-05-13T16:59:36.948Z,15.65
2019-05-13T17:02:07.004Z,15.49
2019-05-13T17:04:36.986Z,15.50
2019-05-13T17:07:07.028Z,15.27
2019-05-13T17:09:37.027Z,15.55
2019-05-13T17:12:07.088Z,15.44
2019-05-13T17:14:37.070Z,15.26
2019-05-13T17:17:07.081Z,15.31
2019-05-13T17:19:37.075Z,15.36
2019-05-13T17:22:07.103Z,15.01
2019-05-13T17:24:37.115Z,15.04
2019-05-13T17:27:07.120Z,15.03
2019-05-13T17:29:37.179Z,15.16
2019-05-13T17:32:07.336Z,15.15
2019-05-13T17:34:37.345Z,15.09
2019-05-13T17:37:07.448Z,14.78
2019-05-13T17:39:37.534Z,14.57
2019-05-13T17:42:07.628Z,14.55
2019-05-13T17:44:37.669Z,14.38
2019-05-13T17:47:07.853Z,14.35
2019-05-13T17:49:37.838Z,14.89
2019-05-13T17:52:07.889Z,14.92
2019-05-13T17:54:37.928Z,14.53
2019-05-13T17:57:07.969Z,15.00
2019-05-13T17:59:37.969Z,14.67
2019-05-13T18:02:08.013Z,14.49
2019-05-13T18:04:38.016Z,14.52
2019-05-13T18:07:08.021Z,14.57
2019-05-13T18:09:42.316Z,14.75
2019-05-13T18:12:12.629Z,14.28
2019-05-13T18:14:42.697Z,14.25
2019-05-13T18:17:12.739Z,14.36
2019-05-13T18:19:42.757Z,14.34
2019-05-13T18:22:12.761Z,14.29
2019-05-13T18:24:42.841Z,14.34
2019-05-13T18:27:12.880Z,14.03
2019-05-13T18:29:42.992Z,13.97
2019-05-13T18:32:13.020Z,13.78
2019-05-13T18:34:43.043Z,13.92
2019-05-13T18:37:13.067Z,14.05
2019-05-13T18:39:43.046Z,13.52
2019-05-13T18:42:13.093Z,13.51
2019-05-13T18:44:43.105Z,13.74
2019-05-13T18:47:13.127Z,13.94
2019-05-13T18:49:43.123Z,14.09
2019-05-13T18:52:13.118Z,14.12
2019-05-13T18:54:43.156Z,13.82
2019-05-13T18:57:13.170Z,13.74
2019-05-13T18:59:43.225Z,13.59
2019-05-13T19:02:13.273Z,13.33
2019-05-13T19:04:43.333Z,13.59
2019-05-13T19:07:13.315Z,13.43
2019-05-13T19:09:43.328Z,13.32
2019-05-13T19:12:13.431Z,13.18
2019-05-13T19:14:43.457Z,13.22
2019-05-13T19:17:13.425Z,12.89
2019-05-13T19:19:43.511Z,13.12
2019-05-13T19:22:13.614Z,13.13
2019-05-13T19:24:43.588Z,13.14
2019-05-13T19:27:13.573Z,13.10
2019-05-13T19:29:43.655Z,13.00
2019-05-13T19:32:13.664Z,13.20
2019-05-13T19:34:43.663Z,12.97
2019-05-13T19:37:13.663Z,12.68
2019-05-13T19:39:43.694Z,12.98
2019-05-13T19:42:13.679Z,12.76
2019-05-13T19:44:43.677Z,12.87
2019-05-13T19:47:13.675Z,12.84
2019-05-13T19:49:46.548Z,13.01
2019-05-13T19:52:15.367Z,13.07
2019-05-13T19:54:45.467Z,12.41
2019-05-13T19:57:15.498Z,12.67
2019-05-13T19:59:45.557Z,12.90
2019-05-13T20:02:15.615Z,12.69
2019-05-13T20:04:45.657Z,12.67
2019-05-13T20:07:15.643Z,12.64
2019-05-13T20:09:45.663Z,12.68
2019-05-13T20:12:15.975Z,12.54
2019-05-13T20:14:46.068Z,12.39
2019-05-13T20:17:16.038Z,12.65
2019-05-13T20:19:50.520Z,12.38
2019-05-13T20:22:17.762Z,12.13
2019-05-13T20:24:47.761Z,12.34
2019-05-13T20:27:17.713Z,12.57
2019-05-13T20:29:47.735Z,12.45
2019-05-13T20:32:17.734Z,12.17
2019-05-13T20:34:47.720Z,12.24
2019-05-13T20:37:17.713Z,12.26
2019-05-13T20:39:47.703Z,12.61
2019-05-13T20:42:17.719Z,12.50
2019-05-13T20:44:47.717Z,12.43
2019-05-13T20:47:17.742Z,12.43
2019-05-13T20:49:59.228Z,12.12
2019-05-13T20:52:22.029Z,12.18
2019-05-13T20:54:51.298Z,12.64
2019-05-13T20:57:22.226Z,12.36
2019-05-13T20:59:52.405Z,12.07
2019-05-13T21:02:22.471Z,12.60
2019-05-13T21:04:52.454Z,12.24
2019-05-13T21:07:22.477Z,12.27
2019-05-13T21:09:52.482Z,12.19
2019-05-13T21:12:22.484Z,11.77
2019-05-13T21:14:52.513Z,12.53
2019-05-13T21:17:22.502Z,12.42
2019-05-13T21:19:52.862Z,12.40
2019-05-13T21:22:22.897Z,12.13
2019-05-13T21:24:52.889Z,12.38
2019-05-13T21:27:22.867Z,11.75
2019-05-13T21:29:52.882Z,12.71
2019-05-13T21:32:22.894Z,12.71
2019-05-13T21:34:52.936Z,12.23
2019-05-13T21:37:23.053Z,12.25
2019-05-13T21:39:53.126Z,11.87
2019-05-13T21:42:23.086Z,11.80
2019-05-13T21:44:53.188Z,11.83
2019-05-13T21:47:23.216Z,12.17
2019-05-13T21:49:53.198Z,11.89
2019-05-13T21:52:23.960Z,11.89
2019-05-13T21:54:53.983Z,12.14
2019-05-13T21:57:23.988Z,12.39
2019-05-13T21:59:53.950Z,12.23
2019-05-13T22:02:24.103Z,11.40
2019-05-13T22:04:54.101Z,11.72
2019-05-13T22:07:24.168Z,11.91
2019-05-13T22:09:54.152Z,12.21
2019-05-13T22:12:24.154Z,11.83
2019-05-13T22:14:54.113Z,11.51
2019-05-13T22:17:24.116Z,11.75
2019-05-13T22:19:54.150Z,12.52
2019-05-13T22:22:24.440Z,12.52
2019-05-13T22:24:54.399Z,12.47
2019-05-13T22:27:24.393Z,12.31
2019-05-13T22:29:54.362Z,11.73
2019-05-13T22:32:24.337Z,12.60
2019-05-13T22:34:54.317Z,11.85
2019-05-13T22:37:24.294Z,12.24
2019-05-13T22:39:54.281Z,12.34
2019-05-13T22:42:24.281Z,12.79
2019-05-13T22:44:54.278Z,12.79
2019-05-13T22:47:24.296Z,11.85
2019-05-13T22:49:56.832Z,11.85
2019-05-13T22:52:25.975Z,12.73
2019-05-13T22:54:55.988Z,12.78
2019-05-13T22:57:25.990Z,12.32
2019-05-13T22:59:56.008Z,11.80
2019-05-13T23:02:26.044Z,11.80
2019-05-13T23:04:56.044Z,11.73
2019-05-13T23:07:26.103Z,12.39
2019-05-13T23:09:56.056Z,12.08
2019-05-13T23:12:26.037Z,11.94
2019-05-13T23:14:56.042Z,11.53
2019-05-13T23:17:26.026Z,11.57
2019-05-13T23:19:56.255Z,11.57
2019-05-13T23:22:26.228Z,11.77
2019-05-13T23:24:56.206Z,11.45
2019-05-13T23:27:26.184Z,12.09
2019-05-13T23:29:56.194Z,12.15
2019-05-13T23:32:26.153Z,11.61
2019-05-13T23:34:56.170Z,12.02
2019-05-13T23:37:26.112Z,11.98
2019-05-13T23:39:56.128Z,11.60
2019-05-13T23:42:26.105Z,11.85
2019-05-13T23:44:56.105Z,11.80
2019-05-13T23:47:26.048Z,11.86
2019-05-13T23:49:56.092Z,12.01
2019-05-13T23:52:26.068Z,11.05
2019-05-13T23:54:56.120Z,11.64
2019-05-13T23:57:26.097Z,11.39
2019-05-13T23:59:56.104Z,10.43
